Treetops, Michigan
Current Conditions -  °F | °C
As of 6:53 PM on Friday 24 Oct 2014 (Local Time) from KGLR Reporting Station
Overcast Overcast  
Wind Chill: 50°   Ceiling: 1200
Heat Index: 50°   Visibility: 10mi
Dew Point: 46°   Wind: 8mph
Humidity: 86%   Direction: 220°SW
Pressure: 29.94"   Gusts: NA
Location:  44.9934°N, 84.6766°W
Report Text: KGLR 242253Z AUTO 22007KT 10SM OVC012 10/08 A2994 RMK AO2 SLP143 T01000078
Loading
Personal Weather Stations






























Interactive Weather Map
Tropical Storm Tracking
New forecast layout! Learn more

10-Day Weather Forecast

Advertisements
Track Severe Weather on mobile